• Join FlightAware (Why Join?)
  • Login
  • US Flag 
02:16AM EDT


 

Airport Tracker/Info


-or-


 

Live Flight TrackerFlight Track Log ✈ ASQ4633 ✈ 22-Apr-2013 ✈ KBTV - KEWR

Flight Track Log - Related Links

Times and Time Zones

All times are in EDT time to prevent confusion due to time zone crossing. See the ASQ4633 flight status page for this flight to view local times or setup timezone preferences in your user account.

Time Position Orientation Groundspeed Altitude Reporting Facility
EDT Latitude Longitude Course Direction KTS MPH feet Rate Location/Type
05:34PM 44.3575 -73.0586 196° South 246 283 6,200  Level Boston Center
05:35PM 44.2555 -73.2178 196° South  Level FlightAware Approximate
05:35PM 44.3033 -73.0842 199° South 271 312 9,200  Level Boston Center
05:36PM 44.1887 -73.2528 190° South  Level FlightAware Approximate
05:36PM 44.2344 -73.1181 199° South 262 302 10,800  Level Boston Center
05:37PM 44.1176 -73.2706 190° South  Level FlightAware Approximate
05:37PM 44.1508 -73.1575 199° South 298 343 12,200  Level Boston Center
05:38PM 44.0469 -73.2913 196° South  Level FlightAware Approximate
05:38PM 44.0631 -73.2000 199° South 329 379 14,100  Level Boston Center
05:39PM 43.9775 -73.3191 196° South  Level FlightAware Approximate
05:39PM 43.9731 -73.2419 199° South 343 395 15,600  Level Boston Center
05:40PM 43.8769 -73.2897 200° South 357 411 16,000 180 Climbing Boston Center
05:41PM 43.7764 -73.3372 199° South 376 433 16,000  Level Boston Center
05:42PM 43.6781 -73.3844 199° South 382 440 16,000  Level Boston Center
05:43PM 43.5694 -73.4372 199° South 382 440 16,000 -60 Level Boston Center
05:44PM 43.4689 -73.4842 199° South 382 440 15,900  Descending Boston Center
05:45PM 43.3664 -73.5339 199° South 388 447 16,000  Climbing Boston Center
05:46PM 43.2847 -73.5725 199° South 388 447 16,000  Level Boston Center
05:47PM 43.1633 -73.6269 198° South 389 448 16,000  Level Boston Center
05:48PM 43.0628 -73.6706 198° South 384 442 16,000  Level Boston Center
05:49PM 42.9622 -73.7139 198° South 384 442 16,000  Level Boston Center
05:50PM 42.8639 -73.7544 197° South 384 442 16,000  Level Boston Center
05:51PM 42.7633 -73.8003 199° South 384 442 16,000  Level Boston Center
05:52PM 42.6628 -73.8433 197° South 384 442 16,000  Level Boston Center
05:53PM 42.5725 -73.8836 198° South 384 442 16,000  Level Boston Center
05:54PM 42.4594 -73.9317 197° South 384 442 16,000  Level Boston Center
05:55PM 42.3714 -73.9717 199° South 384 442 16,000  Level Boston Center
05:56PM 42.2706 -74.0169 198° South 366 421 16,000  Level Boston Center
05:57PM 42.1994 -74.0489 198° South 326 375 16,000 -420 Level Boston Center
05:58PM 42.1092 -74.0911 199° South 312 359 15,200 -900 Descending Boston Center
05:59PM 42.0272 -74.1253 197° South 312 359 14,300 -960 Descending Boston Center
06:00PM 41.9539 -74.1569 198° South 297 342 13,100 -1,080 Descending Boston Center
06:01PM 41.8678 -74.1936 198° South 292 336 12,000 -1,140 Descending Boston Center
06:02PM 41.7861 -74.2303 199° South 286 329 10,900 -960 Descending Boston Center
06:03PM 41.7208 -74.2592 198° South 286 329 10,100 -420 Descending Boston Center
06:04PM 41.6411 -74.2931 198° South 286 329 10,100 -240 Level Boston Center
06:05PM 41.5761 -74.3217 198° South 286 329 9,700 -960 Descending Boston Center
06:06PM 41.4964 -74.3581 199° South 286 329 8,200 -960 Descending Boston Center
06:08PM 41.3667 -74.4167 199° South 266 306 7,100 -480 Descending New York TRACON
06:09PM 41.3000 -74.4333 191° South 262 302 6,900 -540 Descending New York TRACON
06:10PM 41.2333 -74.4667 201° Southwest 258 297 6,100 -420 Descending New York TRACON
06:11PM 41.1667 -74.5000 201° Southwest 259 298 6,100  Level New York TRACON
06:12PM 41.1000 -74.5167 191° South 231 266 6,100  Level New York TRACON
06:13PM 41.0333 -74.5500 201° Southwest 227 261 6,100  Level New York TRACON
06:14PM 40.9833 -74.5667 194° South 235 270 6,100  Level New York TRACON
06:15PM 40.9167 -74.5833 191° South 250 288 6,100  Level New York TRACON
06:16PM 40.8500 -74.6000 191° South 250 288 6,100  Level New York TRACON
06:17PM 40.7833 -74.6000 180° South 248 285 6,100  Level New York TRACON
06:18PM 40.7000 -74.6000 180° South 240 276 6,100  Level New York TRACON
06:19PM 40.6500 -74.6167 194° South 235 270 6,100 -60 Level New York TRACON
06:20PM 40.6000 -74.6167 180° South 229 264 6,000 -540 Descending New York TRACON
06:21PM 40.5500 -74.5667 143° Southeast 219 252 5,100 -480 Descending New York TRACON
06:22PM 40.5000 -74.5500 166° South 218 251 5,100 -120 Level New York TRACON
06:23PM 40.4333 -74.5167 159° South 217 250 4,900 -540 Descending New York TRACON
06:24PM 40.3833 -74.4833 153° Southeast 214 246 4,100 -420 Descending New York TRACON
06:25PM 40.3833 -74.4333 90° East 166 191 4,100 -480 Level New York TRACON
06:26PM 40.4000 -74.3667 72° East 169 194 3,200 -540 Descending New York TRACON
06:27PM 40.4333 -74.3333 37° Northeast 171 197 3,100 -60 Descending New York TRACON
06:28PM 40.4667 -74.3000 37° Northeast 169 194 3,100  Level New York TRACON
06:29PM 40.5167 -74.2833 14° North 165 190 3,100  Level New York TRACON